Aviation Digital Data Service (ADDS)

Output produced by METARs form (2222 UTC 17 October 2017)
found at http://aviationweather.gov/adds/metars/
 
KCLE 172155Z 1722/1824 23012KT P6SM SKC 
     FM180000 21007KT P6SM SKC